sensor_id;sensor_type;location;lat;lon;timestamp;pressure;altitude;pressure_sealevel;temperature;humidity
39051;BME280;24805;55.852;37.644;2023-03-26T00:03:42;98012.72;;;10.05;68.24
39051;BME280;24805;55.852;37.644;2023-03-26T00:08:48;98018.63;;;10.07;68.27
39051;BME280;24805;55.852;37.644;2023-03-26T00:13:51;98018.63;;;10.07;68.21
39051;BME280;24805;55.852;37.644;2023-03-26T00:19:16;98012.22;;;10.27;68.15
39051;BME280;24805;55.852;37.644;2023-03-26T00:24:55;98005.97;;;10.09;68.52
39051;BME280;24805;55.852;37.644;2023-03-26T00:29:58;98008.22;;;10.05;67.84
39051;BME280;24805;55.852;37.644;2023-03-26T00:35:01;98019.81;;;10.11;68.03
39051;BME280;24805;55.852;37.644;2023-03-26T00:40:05;98022.06;;;10.07;67.72
39051;BME280;24805;55.852;37.644;2023-03-26T00:45:09;98015.34;;;10.05;67.28
39051;BME280;24805;55.852;37.644;2023-03-26T00:50:11;98015.34;;;10.05;66.71
39051;BME280;24805;55.852;37.644;2023-03-26T00:55:34;98017.00;;;10.06;66.56
39051;BME280;24805;55.852;37.644;2023-03-26T01:00:42;98006.38;;;10.12;66.54
39051;BME280;24805;55.852;37.644;2023-03-26T01:05:48;97993.19;;;9.99;66.28
39051;BME280;24805;55.852;37.644;2023-03-26T01:10:56;97997.69;;;9.98;66.33
39051;BME280;24805;55.852;37.644;2023-03-26T01:16:06;97988.91;;;9.98;66.63
39051;BME280;24805;55.852;37.644;2023-03-26T01:21:29;97985.81;;;10.08;66.13
39051;BME280;24805;55.852;37.644;2023-03-26T01:37:52;97995.03;;;9.92;65.85
39051;BME280;24805;55.852;37.644;2023-03-26T01:53:48;97968.69;;;9.59;66.23
39051;BME280;24805;55.852;37.644;2023-03-26T02:09:21;97959.28;;;9.63;66.22
39051;BME280;24805;55.852;37.644;2023-03-26T02:14:28;97958.25;;;9.64;66.25
39051;BME280;24805;55.852;37.644;2023-03-26T02:20:11;97971.28;;;9.79;66.03
39051;BME280;24805;55.852;37.644;2023-03-26T02:25:17;97963.78;;;9.62;66.23
39051;BME280;24805;55.852;37.644;2023-03-26T02:30:23;97964.78;;;9.61;65.64
39051;BME280;24805;55.852;37.644;2023-03-26T02:35:29;97960.34;;;9.55;66.11
39051;BME280;24805;55.852;37.644;2023-03-26T02:40:34;97959.75;;;9.53;66.14
39051;BME280;24805;55.852;37.644;2023-03-26T02:45:55;97951.94;;;9.72;66.14
39051;BME280;24805;55.852;37.644;2023-03-26T02:51:33;97953.22;;;9.49;65.85
39051;BME280;24805;55.852;37.644;2023-03-26T02:56:50;97948.34;;;9.46;66.51
39051;BME280;24805;55.852;37.644;2023-03-26T03:02:15;97937.78;;;9.40;65.94
39051;BME280;24805;55.852;37.644;2023-03-26T03:07:18;97936.75;;;9.41;66.13
39051;BME280;24805;55.852;37.644;2023-03-26T03:12:21;97931.28;;;9.36;66.57
39051;BME280;24805;55.852;37.644;2023-03-26T03:17:42;97927.97;;;9.53;66.47
39051;BME280;24805;55.852;37.644;2023-03-26T03:22:44;97921.13;;;9.32;66.58
39051;BME280;24805;55.852;37.644;2023-03-26T03:28:05;97918.06;;;9.29;67.01
39051;BME280;24805;55.852;37.644;2023-03-26T03:33:08;97913.78;;;9.28;67.29
39051;BME280;24805;55.852;37.644;2023-03-26T03:38:11;97906.88;;;9.27;66.95
39051;BME280;24805;55.852;37.644;2023-03-26T03:43:21;97889.78;;;9.23;67.28
39051;BME280;24805;55.852;37.644;2023-03-26T03:48:35;97883.50;;;9.17;67.17
39051;BME280;24805;55.852;37.644;2023-03-26T03:53:40;97889.81;;;9.16;67.71
39051;BME280;24805;55.852;37.644;2023-03-26T03:58:44;97875.38;;;9.12;67.82
39051;BME280;24805;55.852;37.644;2023-03-26T04:03:53;97877.63;;;9.15;67.60
39051;BME280;24805;55.852;37.644;2023-03-26T04:08:59;97875.19;;;9.14;67.87
39051;BME280;24805;55.852;37.644;2023-03-26T04:14:02;97879.63;;;9.20;67.79
39051;BME280;24805;55.852;37.644;2023-03-26T04:25:04;97875.34;;;9.25;67.68
39051;BME280;24805;55.852;37.644;2023-03-26T04:30:16;97863.91;;;9.31;67.98
39051;BME280;24805;55.852;37.644;2023-03-26T04:35:37;97858.63;;;9.25;67.16
39051;BME280;24805;55.852;37.644;2023-03-26T04:40:44;97861.28;;;9.25;67.39
39051;BME280;24805;55.852;37.644;2023-03-26T04:46:14;97849.19;;;9.49;67.64
39051;BME280;24805;55.852;37.644;2023-03-26T04:51:32;97842.69;;;9.45;67.55
39051;BME280;24805;55.852;37.644;2023-03-26T05:02:11;97838.66;;;9.36;67.21
39051;BME280;24805;55.852;37.644;2023-03-26T05:07:23;97829.84;;;9.42;66.79
39051;BME280;24805;55.852;37.644;2023-03-26T05:12:30;97826.41;;;9.41;66.43
39051;BME280;24805;55.852;37.644;2023-03-26T05:23:57;97812.72;;;9.51;66.17
39051;BME280;24805;55.852;37.644;2023-03-26T05:29:17;97824.72;;;9.53;66.23
39051;BME280;24805;55.852;37.644;2023-03-26T05:34:23;97810.28;;;9.49;65.90
39051;BME280;24805;55.852;37.644;2023-03-26T05:39:27;97825.53;;;9.54;65.76
39051;BME280;24805;55.852;37.644;2023-03-26T05:44:30;97825.66;;;9.65;66.57
39051;BME280;24805;55.852;37.644;2023-03-26T05:49:37;97822.78;;;9.74;66.14
39051;BME280;24805;55.852;37.644;2023-03-26T05:54:58;97819.03;;;9.81;65.67
39051;BME280;24805;55.852;37.644;2023-03-26T06:00:32;97817.19;;;9.88;65.82
39051;BME280;24805;55.852;37.644;2023-03-26T06:05:41;97817.34;;;9.93;65.23
39051;BME280;24805;55.852;37.644;2023-03-26T06:10:59;97806.84;;;10.05;65.28
39051;BME280;24805;55.852;37.644;2023-03-26T06:16:07;97802.47;;;9.92;64.78
39051;BME280;24805;55.852;37.644;2023-03-26T06:21:12;97785.72;;;9.74;65.78
39051;BME280;24805;55.852;37.644;2023-03-26T06:32:06;97779.22;;;9.70;66.07
39051;BME280;24805;55.852;37.644;2023-03-26T06:37:26;97774.63;;;9.83;66.31
39051;BME280;24805;55.852;37.644;2023-03-26T06:42:33;97773.06;;;9.76;66.26
39051;BME280;24805;55.852;37.644;2023-03-26T06:48:08;97770.56;;;9.56;67.82
39051;BME280;24805;55.852;37.644;2023-03-26T06:53:22;97764.28;;;9.44;68.45
39051;BME280;24805;55.852;37.644;2023-03-26T07:04:29;97756.84;;;9.34;69.23
39051;BME280;24805;55.852;37.644;2023-03-26T07:09:52;97750.91;;;9.39;70.08
39051;BME280;24805;55.852;37.644;2023-03-26T07:15:17;97735.91;;;9.57;71.15
39051;BME280;24805;55.852;37.644;2023-03-26T07:32:22;97712.38;;;10.42;70.47
39051;BME280;24805;55.852;37.644;2023-03-26T07:49:25;97712.97;;;10.62;68.64
39051;BME280;24805;55.852;37.644;2023-03-26T07:54:49;97707.66;;;10.62;68.16
39051;BME280;24805;55.852;37.644;2023-03-26T08:00:20;97695.88;;;10.77;68.44
39051;BME280;24805;55.852;37.644;2023-03-26T08:05:32;97692.94;;;10.66;68.44
39051;BME280;24805;55.852;37.644;2023-03-26T08:11:33;97687.97;;;10.88;68.54
39051;BME280;24805;55.852;37.644;2023-03-26T08:16:55;97677.50;;;10.93;68.84
39051;BME280;24805;55.852;37.644;2023-03-26T08:22:21;97674.19;;;10.98;68.22
39051;BME280;24805;55.852;37.644;2023-03-26T08:27:59;97669.31;;;10.95;67.74
39051;BME280;24805;55.852;37.644;2023-03-26T08:33:25;97660.63;;;10.88;68.17
39051;BME280;24805;55.852;37.644;2023-03-26T08:38:28;97663.03;;;10.78;67.48
39051;BME280;24805;55.852;37.644;2023-03-26T09:37:58;97602.84;;;9.87;69.52
39051;BME280;24805;55.852;37.644;2023-03-26T10:15:20;97559.22;;;9.71;70.90
39051;BME280;24805;55.852;37.644;2023-03-26T10:37:46;97561.66;;;9.91;70.83
39051;BME280;24805;55.852;37.644;2023-03-26T10:54:48;97550.63;;;9.94;70.38
39051;BME280;24805;55.852;37.644;2023-03-26T11:00:25;97542.16;;;10.03;70.24
39051;BME280;24805;55.852;37.644;2023-03-26T11:23:01;97526.69;;;10.00;70.31
39051;BME280;24805;55.852;37.644;2023-03-26T11:28:22;97519.06;;;9.74;71.68
39051;BME280;24805;55.852;37.644;2023-03-26T11:33:34;97516.19;;;9.76;71.47
39051;BME280;24805;55.852;37.644;2023-03-26T11:38:48;97509.19;;;9.81;71.87
39051;BME280;24805;55.852;37.644;2023-03-26T11:44:04;97512.94;;;9.92;71.52
39051;BME280;24805;55.852;37.644;2023-03-26T11:49:11;97515.16;;;9.95;71.24
39051;BME280;24805;55.852;37.644;2023-03-26T11:54:14;97513.25;;;9.84;71.24
39051;BME280;24805;55.852;37.644;2023-03-26T11:59:22;97511.56;;;9.89;72.29
39051;BME280;24805;55.852;37.644;2023-03-26T12:04:42;97500.56;;;10.04;72.36
39051;BME280;24805;55.852;37.644;2023-03-26T12:10:32;97492.75;;;10.09;72.51
39051;BME280;24805;55.852;37.644;2023-03-26T12:15:41;97503.44;;;10.02;72.84
39051;BME280;24805;55.852;37.644;2023-03-26T12:20:44;97495.66;;;9.89;72.47
39051;BME280;24805;55.852;37.644;2023-03-26T12:26:04;97504.97;;;10.10;72.13
39051;BME280;24805;55.852;37.644;2023-03-26T12:31:13;97488.44;;;9.96;72.98
39051;BME280;24805;55.852;37.644;2023-03-26T12:36:30;97492.19;;;10.07;72.70
39051;BME280;24805;55.852;37.644;2023-03-26T12:41:39;97491.69;;;9.98;72.59
39051;BME280;24805;55.852;37.644;2023-03-26T12:47:14;97464.88;;;10.07;72.97
39051;BME280;24805;55.852;37.644;2023-03-26T12:53:03;97476.28;;;10.07;73.13
39051;BME280;24805;55.852;37.644;2023-03-26T13:09:06;97461.38;;;9.94;74.00
39051;BME280;24805;55.852;37.644;2023-03-26T13:19:33;97466.31;;;9.91;74.23
39051;BME280;24805;55.852;37.644;2023-03-26T13:30:46;97456.22;;;9.81;73.81
39051;BME280;24805;55.852;37.644;2023-03-26T13:46:59;97458.72;;;9.94;73.70
39051;BME280;24805;55.852;37.644;2023-03-26T13:57:48;97456.66;;;9.96;74.04
39051;BME280;24805;55.852;37.644;2023-03-26T14:03:03;97453.28;;;9.89;74.05
39051;BME280;24805;55.852;37.644;2023-03-26T14:08:33;97450.41;;;9.91;74.51
39051;BME280;24805;55.852;37.644;2023-03-26T14:13:42;97452.44;;;9.77;74.21
39051;BME280;24805;55.852;37.644;2023-03-26T14:19:17;97446.22;;;9.83;74.16
39051;BME280;24805;55.852;37.644;2023-03-26T14:24:45;97450.34;;;9.79;73.74
39051;BME280;24805;55.852;37.644;2023-03-26T14:40:56;97453.16;;;9.66;74.25
39051;BME280;24805;55.852;37.644;2023-03-26T14:46:20;97474.63;;;9.76;74.25
39051;BME280;24805;55.852;37.644;2023-03-26T14:57:22;97444.94;;;9.74;73.29
39051;BME280;24805;55.852;37.644;2023-03-26T15:35:02;97436.53;;;9.77;72.07
39051;BME280;24805;55.852;37.644;2023-03-26T15:45:50;97435.00;;;9.70;72.34
39051;BME280;24805;55.852;37.644;2023-03-26T16:02:07;97449.03;;;9.70;71.87
39051;BME280;24805;55.852;37.644;2023-03-26T16:12:46;97446.25;;;9.65;72.08
39051;BME280;24805;55.852;37.644;2023-03-26T16:34:41;97452.28;;;9.72;71.47
39051;BME280;24805;55.852;37.644;2023-03-26T16:44:50;97464.84;;;9.77;71.00
39051;BME280;24805;55.852;37.644;2023-03-26T16:50:20;97452.09;;;9.85;71.42
39051;BME280;24805;55.852;37.644;2023-03-26T17:01:05;97439.75;;;9.79;71.51
39051;BME280;24805;55.852;37.644;2023-03-26T17:06:26;97450.50;;;9.84;70.81
39051;BME280;24805;55.852;37.644;2023-03-26T17:22:17;97459.34;;;9.78;70.54
39051;BME280;24805;55.852;37.644;2023-03-26T17:27:38;97471.53;;;9.79;70.97
39051;BME280;24805;55.852;37.644;2023-03-26T17:48:44;97467.34;;;9.72;70.98
39051;BME280;24805;55.852;37.644;2023-03-26T17:53:48;97455.44;;;9.62;70.72
39051;BME280;24805;55.852;37.644;2023-03-26T17:58:54;97451.53;;;9.65;70.83
39051;BME280;24805;55.852;37.644;2023-03-26T18:04:18;97458.59;;;9.71;71.28
39051;BME280;24805;55.852;37.644;2023-03-26T18:15:24;97456.75;;;9.72;71.83
39051;BME280;24805;55.852;37.644;2023-03-26T18:20:30;97452.06;;;9.55;71.37
39051;BME280;24805;55.852;37.644;2023-03-26T18:25:33;97448.84;;;9.53;70.99
39051;BME280;24805;55.852;37.644;2023-03-26T18:30:47;97450.94;;;9.63;71.46
39051;BME280;24805;55.852;37.644;2023-03-26T18:35:53;97442.13;;;9.51;71.34
39051;BME280;24805;55.852;37.644;2023-03-26T18:40:56;97437.50;;;9.46;71.74
39051;BME280;24805;55.852;37.644;2023-03-26T18:45:59;97446.31;;;9.40;71.69
39051;BME280;24805;55.852;37.644;2023-03-26T18:51:03;97449.53;;;9.42;71.63
39051;BME280;24805;55.852;37.644;2023-03-26T18:56:28;97436.41;;;9.54;71.22
39051;BME280;24805;55.852;37.644;2023-03-26T19:01:34;97439.19;;;9.41;72.39
39051;BME280;24805;55.852;37.644;2023-03-26T19:06:39;97434.13;;;9.39;71.57
39051;BME280;24805;55.852;37.644;2023-03-26T19:11:42;97435.81;;;9.33;71.67
39051;BME280;24805;55.852;37.644;2023-03-26T19:16:51;97448.53;;;9.43;71.72
39051;BME280;24805;55.852;37.644;2023-03-26T19:21:57;97416.38;;;9.21;71.06
39051;BME280;24805;55.852;37.644;2023-03-26T19:27:00;97441.16;;;9.27;72.01
39051;BME280;24805;55.852;37.644;2023-03-26T19:32:05;97436.84;;;9.32;71.50
39051;BME280;24805;55.852;37.644;2023-03-26T19:37:23;97430.16;;;9.30;70.96
39051;BME280;24805;55.852;37.644;2023-03-26T19:42:29;97431.81;;;9.24;71.33
39051;BME280;24805;55.852;37.644;2023-03-26T19:47:46;97438.88;;;9.12;71.08
39051;BME280;24805;55.852;37.644;2023-03-26T19:58:17;97437.63;;;8.96;69.66
39051;BME280;24805;55.852;37.644;2023-03-26T20:03:26;97447.00;;;8.92;69.88
39051;BME280;24805;55.852;37.644;2023-03-26T20:08:29;97443.22;;;8.82;69.58
39051;BME280;24805;55.852;37.644;2023-03-26T20:13:32;97445.22;;;8.86;69.41
39051;BME280;24805;55.852;37.644;2023-03-26T20:18:34;97442.41;;;8.81;69.54
39051;BME280;24805;55.852;37.644;2023-03-26T20:23:36;97439.97;;;8.80;69.36
39051;BME280;24805;55.852;37.644;2023-03-26T20:28:40;97447.06;;;8.86;69.02
39051;BME280;24805;55.852;37.644;2023-03-26T20:33:50;97449.31;;;8.82;69.31
39051;BME280;24805;55.852;37.644;2023-03-26T20:38:52;97451.44;;;8.74;69.08
39051;BME280;24805;55.852;37.644;2023-03-26T20:43:55;97449.44;;;8.69;68.35
39051;BME280;24805;55.852;37.644;2023-03-26T20:48:58;97453.75;;;8.63;69.33
39051;BME280;24805;55.852;37.644;2023-03-26T20:54:01;97462.09;;;8.60;69.09
39051;BME280;24805;55.852;37.644;2023-03-26T20:59:03;97464.75;;;8.60;69.38
39051;BME280;24805;55.852;37.644;2023-03-26T21:04:12;97472.25;;;8.63;69.20
39051;BME280;24805;55.852;37.644;2023-03-26T21:09:18;97464.91;;;8.66;68.64
39051;BME280;24805;55.852;37.644;2023-03-26T21:14:28;97459.03;;;8.63;69.05
39051;BME280;24805;55.852;37.644;2023-03-26T21:19:32;97443.91;;;8.46;68.85
39051;BME280;24805;55.852;37.644;2023-03-26T21:29:37;97474.56;;;8.53;67.56
39051;BME280;24805;55.852;37.644;2023-03-26T21:34:39;97479.25;;;8.51;68.24
39051;BME280;24805;55.852;37.644;2023-03-26T21:39:56;97481.94;;;8.45;67.11
39051;BME280;24805;55.852;37.644;2023-03-26T21:45:00;97486.06;;;8.34;67.13
39051;BME280;24805;55.852;37.644;2023-03-26T21:50:05;97495.03;;;8.33;66.97
39051;BME280;24805;55.852;37.644;2023-03-26T21:55:09;97495.63;;;8.35;67.27
39051;BME280;24805;55.852;37.644;2023-03-26T22:00:14;97498.22;;;8.42;67.12
39051;BME280;24805;55.852;37.644;2023-03-26T22:10:53;97509.84;;;8.34;66.92
39051;BME280;24805;55.852;37.644;2023-03-26T22:15:56;97517.19;;;8.32;67.00
39051;BME280;24805;55.852;37.644;2023-03-26T22:20:59;97512.06;;;8.30;67.21
39051;BME280;24805;55.852;37.644;2023-03-26T22:26:03;97510.88;;;8.26;66.69
39051;BME280;24805;55.852;37.644;2023-03-26T22:31:06;97511.34;;;8.17;67.17
39051;BME280;24805;55.852;37.644;2023-03-26T22:36:11;97510.13;;;8.13;67.09
39051;BME280;24805;55.852;37.644;2023-03-26T22:41:24;97511.16;;;8.12;67.14
39051;BME280;24805;55.852;37.644;2023-03-26T22:46:27;97515.63;;;8.11;66.58
39051;BME280;24805;55.852;37.644;2023-03-26T22:51:29;97517.66;;;8.09;66.39
39051;BME280;24805;55.852;37.644;2023-03-26T22:56:31;97522.81;;;7.98;66.93
39051;BME280;24805;55.852;37.644;2023-03-26T23:01:34;97523.84;;;7.90;67.20
39051;BME280;24805;55.852;37.644;2023-03-26T23:06:37;97521.59;;;7.87;67.06
39051;BME280;24805;55.852;37.644;2023-03-26T23:11:39;97522.22;;;7.89;66.80
39051;BME280;24805;55.852;37.644;2023-03-26T23:16:41;97513.69;;;7.87;67.06
39051;BME280;24805;55.852;37.644;2023-03-26T23:21:46;97521.63;;;7.80;66.82
39051;BME280;24805;55.852;37.644;2023-03-26T23:26:48;97526.13;;;7.73;67.39
39051;BME280;24805;55.852;37.644;2023-03-26T23:31:52;97513.97;;;7.66;67.34
39051;BME280;24805;55.852;37.644;2023-03-26T23:36:55;97532.47;;;7.59;67.73
39051;BME280;24805;55.852;37.644;2023-03-26T23:41:58;97522.69;;;7.59;67.52
39051;BME280;24805;55.852;37.644;2023-03-26T23:47:00;97520.06;;;7.66;67.29
39051;BME280;24805;55.852;37.644;2023-03-26T23:52:03;97526.53;;;7.77;66.67
39051;BME280;24805;55.852;37.644;2023-03-26T23:57:05;97513.94;;;7.79;65.55
